createdAt,value
2022-08-09T00:00:04.928Z,18.70
2022-08-09T00:02:34.295Z,18.60
2022-08-09T00:06:16.179Z,18.60
2022-08-09T00:07:49.619Z,18.60
2022-08-09T00:10:21.448Z,18.50
2022-08-09T00:12:52.735Z,18.50
2022-08-09T00:15:26.563Z,18.50
2022-08-09T00:18:11.977Z,18.40
2022-08-09T00:20:42.236Z,18.40
2022-08-09T00:23:56.554Z,18.40
2022-08-09T00:26:08.700Z,18.30
2022-08-09T00:28:39.490Z,18.40
2022-08-09T00:31:09.305Z,18.30
2022-08-09T00:33:55.303Z,18.30
2022-08-09T00:36:29.761Z,18.30
2022-08-09T00:38:58.727Z,18.20
2022-08-09T00:44:13.797Z,18.20
2022-08-09T00:44:27.093Z,18.20
2022-08-09T00:47:05.076Z,18.10
2022-08-09T00:49:36.749Z,18.10
2022-08-09T00:52:06.207Z,18.10
2022-08-09T00:54:45.517Z,18.10
2022-08-09T00:57:13.666Z,18.10
2022-08-09T00:59:52.291Z,18.10
2022-08-09T01:02:27.285Z,18.10
2022-08-09T01:04:56.973Z,18.00
2022-08-09T01:08:00.420Z,18.00
2022-08-09T01:10:51.361Z,17.90
2022-08-09T01:13:31.325Z,17.90
2022-08-09T01:16:11.250Z,17.90
2022-08-09T01:18:43.048Z,17.90
2022-08-09T01:21:40.956Z,17.90
2022-08-09T01:24:31.056Z,17.80
2022-08-09T01:27:10.125Z,17.80
2022-08-09T01:29:55.548Z,17.80
2022-08-09T01:32:34.038Z,17.70
2022-08-09T01:35:28.418Z,17.70
2022-08-09T01:38:07.700Z,17.70
2022-08-09T01:40:42.580Z,17.70
2022-08-09T01:43:11.059Z,17.60
2022-08-09T01:45:44.841Z,17.60
2022-08-09T01:48:19.769Z,17.60
2022-08-09T01:50:58.477Z,17.60
2022-08-09T01:53:29.274Z,17.50
2022-08-09T01:56:10.827Z,17.50
2022-08-09T01:58:38.892Z,17.40
2022-08-09T02:01:06.653Z,17.40
2022-08-09T02:03:36.468Z,17.40
2022-08-09T02:06:06.918Z,17.40
2022-08-09T02:08:57.717Z,17.40
2022-08-09T02:11:42.589Z,17.30
2022-08-09T02:14:15.785Z,17.30
2022-08-09T02:16:59.580Z,17.30
2022-08-09T02:19:43.276Z,17.30
2022-08-09T02:22:35.885Z,17.30
2022-08-09T02:25:07.894Z,17.20
2022-08-09T02:27:58.311Z,17.20
2022-08-09T02:30:27.105Z,17.20
2022-08-09T02:32:55.273Z,17.10
2022-08-09T02:36:01.186Z,17.10
2022-08-09T02:38:23.630Z,17.00
2022-08-09T02:41:00.732Z,17.00
2022-08-09T02:43:31.704Z,16.90
2022-08-09T02:46:18.767Z,16.90
2022-08-09T02:48:46.896Z,16.90
2022-08-09T02:51:20.477Z,16.80
2022-08-09T02:53:59.531Z,16.80
2022-08-09T02:56:30.363Z,16.80
2022-08-09T02:58:59.319Z,16.70
2022-08-09T03:01:29.593Z,16.70
2022-08-09T03:04:19.369Z,16.70
2022-08-09T03:06:48.786Z,16.70
2022-08-09T03:09:18.041Z,16.70
2022-08-09T03:12:05.372Z,16.70
2022-08-09T03:14:34.003Z,16.70
2022-08-09T03:17:05.692Z,16.60
2022-08-09T03:19:58.593Z,16.60
2022-08-09T03:22:25.426Z,16.50
2022-08-09T03:25:06.639Z,16.50
2022-08-09T03:27:50.628Z,16.50
2022-08-09T03:30:23.657Z,16.50
2022-08-09T03:33:12.655Z,16.50
2022-08-09T03:36:14.096Z,16.50
2022-08-09T03:38:32.280Z,16.50
2022-08-09T03:40:59.231Z,16.40
2022-08-09T03:43:31.624Z,16.40
2022-08-09T03:46:03.089Z,16.40
2022-08-09T03:48:36.109Z,16.40
2022-08-09T03:51:07.106Z,16.40
2022-08-09T03:53:54.635Z,16.40
2022-08-09T03:56:22.368Z,16.40
2022-08-09T03:58:50.228Z,16.40
2022-08-09T04:01:17.777Z,16.40
2022-08-09T04:04:02.316Z,16.40
2022-08-09T04:06:32.094Z,16.40
2022-08-09T04:09:02.675Z,16.40
2022-08-09T04:11:59.616Z,16.50
2022-08-09T04:14:53.085Z,16.50
2022-08-09T04:17:16.586Z,16.50
2022-08-09T04:19:51.491Z,16.60
2022-08-09T04:22:22.993Z,16.60
2022-08-09T04:24:49.904Z,16.70
2022-08-09T04:27:22.050Z,16.80
2022-08-09T04:29:50.075Z,16.80
2022-08-09T04:32:23.525Z,16.80
2022-08-09T04:34:58.429Z,16.90
2022-08-09T04:37:45.515Z,17.00
2022-08-09T04:40:19.242Z,17.10
2022-08-09T04:42:48.497Z,17.20
2022-08-09T04:45:16.583Z,17.20
2022-08-09T04:48:00.858Z,17.80
2022-08-09T04:50:31.897Z,17.50
2022-08-09T04:53:13.285Z,17.50
2022-08-09T04:55:58.482Z,17.60
2022-08-09T04:58:31.573Z,17.80
2022-08-09T05:01:00.150Z,18.20
2022-08-09T05:03:41.265Z,18.80
2022-08-09T05:06:27.211Z,19.60
2022-08-09T05:09:00.574Z,20.80
2022-08-09T05:11:32.062Z,21.80
2022-08-09T05:13:59.646Z,22.80
2022-08-09T05:16:31.756Z,23.70
2022-08-09T05:19:00.191Z,24.50
2022-08-09T05:21:30.038Z,25.40
2022-08-09T05:24:01.444Z,26.10
2022-08-09T05:26:45.637Z,26.90
2022-08-09T05:29:21.453Z,27.40
2022-08-09T05:31:57.585Z,27.70
2022-08-09T05:34:31.411Z,28.10
2022-08-09T05:37:01.681Z,28.60
2022-08-09T05:39:36.546Z,28.90
2022-08-09T05:42:18.004Z,29.40
2022-08-09T05:44:51.334Z,30.00
2022-08-09T05:47:21.747Z,30.60
2022-08-09T05:50:26.087Z,31.10
2022-08-09T05:52:39.487Z,31.50
2022-08-09T05:55:08.949Z,31.80
2022-08-09T05:57:55.954Z,32.00
2022-08-09T06:00:29.967Z,32.40
2022-08-09T06:03:01.787Z,32.60
2022-08-09T06:05:57.868Z,33.10
2022-08-09T06:08:19.344Z,33.30
2022-08-09T06:10:51.507Z,33.50
2022-08-09T06:13:20.561Z,33.60
2022-08-09T06:15:51.253Z,33.70
2022-08-09T06:18:25.361Z,33.80
2022-08-09T06:20:57.808Z,34.00
2022-08-09T06:23:55.376Z,34.20
2022-08-09T06:26:20.059Z,34.20
2022-08-09T06:28:59.953Z,34.80
2022-08-09T06:31:39.799Z,35.30
2022-08-09T06:34:22.791Z,35.60
2022-08-09T06:36:59.354Z,36.20
2022-08-09T06:39:48.511Z,36.20
2022-08-09T06:42:24.556Z,36.20
2022-08-09T06:44:55.363Z,36.50
2022-08-09T06:47:24.828Z,37.00
2022-08-09T06:50:14.050Z,37.30
2022-08-09T06:52:48.510Z,37.60
2022-08-09T06:55:17.942Z,37.50
2022-08-09T06:58:02.462Z,37.30
2022-08-09T07:00:52.911Z,36.80
2022-08-09T07:03:18.986Z,36.60
2022-08-09T07:06:02.369Z,36.40
2022-08-09T07:08:31.518Z,36.90
2022-08-09T07:10:58.450Z,37.50
2022-08-09T07:13:28.378Z,38.20
2022-08-09T07:16:41.822Z,38.90
2022-08-09T07:18:44.273Z,39.40
2022-08-09T07:21:14.697Z,40.20
2022-08-09T07:23:56.295Z,40.60
2022-08-09T07:26:25.147Z,40.70
2022-08-09T07:29:08.409Z,41.30
2022-08-09T07:31:45.854Z,41.70
2022-08-09T07:34:20.584Z,41.70
2022-08-09T07:36:49.263Z,41.10
2022-08-09T07:39:20.639Z,40.70
2022-08-09T07:42:05.115Z,40.80
2022-08-09T07:44:51.610Z,40.70
2022-08-09T07:47:20.884Z,41.20
2022-08-09T07:50:04.345Z,41.40
2022-08-09T07:52:33.111Z,41.20
2022-08-09T07:55:03.996Z,41.70
2022-08-09T07:57:36.415Z,41.80
2022-08-09T08:00:08.922Z,41.50
2022-08-09T08:02:42.675Z,41.10
2022-08-09T08:05:17.523Z,39.70
2022-08-09T08:08:43.837Z,37.90
2022-08-09T08:10:34.298Z,36.00
2022-08-09T08:13:01.678Z,34.20
2022-08-09T08:15:37.599Z,33.10
2022-08-09T08:18:06.293Z,32.20
2022-08-09T08:20:33.605Z,31.20
2022-08-09T08:23:15.887Z,30.50
2022-08-09T08:25:48.542Z,30.10
2022-08-09T08:28:18.390Z,29.60
2022-08-09T08:30:53.647Z,29.10
2022-08-09T08:33:24.362Z,28.70
2022-08-09T08:36:00.535Z,28.30
2022-08-09T08:38:30.461Z,28.10
2022-08-09T08:40:58.291Z,27.90
2022-08-09T08:43:27.087Z,27.60
2022-08-09T08:46:31.899Z,27.40
2022-08-09T08:48:54.045Z,27.40
2022-08-09T08:51:22.905Z,27.40
2022-08-09T08:54:02.915Z,27.40
2022-08-09T08:56:35.438Z,27.30
2022-08-09T08:59:07.958Z,27.30
2022-08-09T09:01:53.019Z,27.30
2022-08-09T09:04:37.819Z,27.20
2022-08-09T09:07:15.964Z,27.00
2022-08-09T09:10:01.559Z,27.00
2022-08-09T09:12:34.151Z,26.80
2022-08-09T09:15:05.509Z,26.80
2022-08-09T09:17:48.403Z,26.80
2022-08-09T09:20:16.210Z,26.80
2022-08-09T09:23:01.749Z,26.80
2022-08-09T09:26:03.620Z,27.00
2022-08-09T09:29:02.236Z,26.90
2022-08-09T09:32:06.062Z,26.70
2022-08-09T09:34:18.543Z,26.60
2022-08-09T09:36:51.191Z,26.50
2022-08-09T09:39:23.654Z,26.40
2022-08-09T09:42:26.229Z,26.50
2022-08-09T09:45:02.949Z,26.60
2022-08-09T09:47:32.509Z,26.70
2022-08-09T09:50:13.587Z,26.70
2022-08-09T09:52:54.327Z,26.80
2022-08-09T09:55:28.744Z,27.00
2022-08-09T09:58:16.570Z,27.00
2022-08-09T10:00:59.411Z,27.20
2022-08-09T10:03:57.314Z,27.40
2022-08-09T10:06:42.926Z,27.50
2022-08-09T10:09:22.162Z,27.60
2022-08-09T10:12:14.390Z,27.80
2022-08-09T10:14:48.736Z,28.20
2022-08-09T10:17:39.427Z,28.40
2022-08-09T10:20:27.606Z,28.50
2022-08-09T10:23:17.364Z,28.60
2022-08-09T10:26:06.219Z,28.70
2022-08-09T10:28:35.964Z,28.60
2022-08-09T10:34:10.318Z,28.50
2022-08-09T10:36:39.862Z,28.40
2022-08-09T10:39:15.439Z,28.30
2022-08-09T10:41:46.171Z,28.20
2022-08-09T10:44:19.344Z,28.30
2022-08-09T10:47:28.139Z,28.10
2022-08-09T10:50:09.997Z,28.00
2022-08-09T10:53:28.531Z,27.80
2022-08-09T10:56:26.815Z,27.80
2022-08-09T10:58:59.298Z,27.90
2022-08-09T11:03:15.572Z,28.00
2022-08-09T11:04:30.551Z,27.90
2022-08-09T11:06:59.909Z,27.70
2022-08-09T11:09:41.391Z,27.70
2022-08-09T11:12:17.831Z,27.60
2022-08-09T11:14:48.681Z,27.60
2022-08-09T11:17:15.871Z,27.70
2022-08-09T11:20:22.580Z,28.00
2022-08-09T11:22:55.600Z,28.10
2022-08-09T11:25:45.374Z,28.30
2022-08-09T11:28:54.311Z,28.60
2022-08-09T11:31:49.287Z,28.90
2022-08-09T11:34:48.914Z,29.30
2022-08-09T11:37:40.742Z,29.70
2022-08-09T11:40:11.006Z,29.70
2022-08-09T11:42:52.596Z,29.70
2022-08-09T11:45:26.291Z,29.60
2022-08-09T11:48:28.106Z,29.50
2022-08-09T11:52:06.777Z,29.40
2022-08-09T11:54:01.508Z,29.20
2022-08-09T11:56:41.945Z,29.00
2022-08-09T11:59:30.379Z,28.80
2022-08-09T12:02:17.595Z,28.70
2022-08-09T12:04:58.134Z,28.70
2022-08-09T12:07:41.717Z,28.80
2022-08-09T12:10:14.312Z,28.80
2022-08-09T12:13:03.475Z,28.90
2022-08-09T12:15:50.204Z,28.90
2022-08-09T12:18:29.708Z,28.90
2022-08-09T12:21:00.360Z,28.90
2022-08-09T12:23:56.681Z,28.90
2022-08-09T12:26:25.511Z,29.00
2022-08-09T12:29:15.117Z,29.10
2022-08-09T12:32:02.365Z,29.20
2022-08-09T12:34:36.596Z,29.20
2022-08-09T12:37:21.887Z,29.20
2022-08-09T12:40:09.729Z,29.10
2022-08-09T12:42:37.371Z,29.00
2022-08-09T12:45:32.316Z,28.90
2022-08-09T12:47:53.027Z,28.90
2022-08-09T12:50:23.404Z,28.90
2022-08-09T12:53:08.512Z,28.90
2022-08-09T12:56:16.450Z,28.80
2022-08-09T12:58:27.742Z,28.70
2022-08-09T13:00:56.189Z,28.80
2022-08-09T13:03:53.665Z,28.80
2022-08-09T13:06:25.536Z,28.70
2022-08-09T13:09:14.184Z,28.70
2022-08-09T13:11:46.850Z,28.70
2022-08-09T13:14:42.090Z,28.60
2022-08-09T13:17:44.183Z,28.50
2022-08-09T13:20:13.967Z,28.40
2022-08-09T13:23:05.764Z,28.50
2022-08-09T13:25:42.960Z,28.50
2022-08-09T13:28:34.198Z,28.40
2022-08-09T13:32:15.469Z,28.30
2022-08-09T13:33:54.411Z,28.30
2022-08-09T13:36:37.388Z,28.10
2022-08-09T13:41:19.428Z,28.00
2022-08-09T13:42:12.408Z,28.00
2022-08-09T13:44:42.116Z,28.10
2022-08-09T13:47:29.092Z,28.00
2022-08-09T13:50:30.694Z,28.00
2022-08-09T13:52:58.924Z,28.20
2022-08-09T13:55:28.690Z,28.40
2022-08-09T13:57:58.424Z,28.50
2022-08-09T14:00:28.954Z,28.60
2022-08-09T14:03:04.329Z,28.60
2022-08-09T14:05:58.778Z,28.70
2022-08-09T14:08:31.905Z,28.70
2022-08-09T14:11:00.598Z,28.80
2022-08-09T14:14:22.822Z,28.70
2022-08-09T14:16:28.344Z,28.70
2022-08-09T14:18:58.087Z,28.60
2022-08-09T14:21:26.959Z,28.60
2022-08-09T14:23:57.597Z,28.60
2022-08-09T14:26:31.963Z,28.70
2022-08-09T14:29:25.758Z,28.70
2022-08-09T14:31:56.650Z,28.70
2022-08-09T14:34:31.778Z,28.70
2022-08-09T14:37:06.766Z,28.70
2022-08-09T14:39:46.157Z,28.60
2022-08-09T14:42:29.120Z,28.50
2022-08-09T14:45:01.672Z,28.40
2022-08-09T14:47:49.609Z,28.40
2022-08-09T14:50:27.465Z,28.40
2022-08-09T14:52:54.668Z,28.50
2022-08-09T14:55:21.711Z,28.50
2022-08-09T14:57:49.698Z,28.50
2022-08-09T15:00:18.092Z,28.50
2022-08-09T15:02:47.098Z,28.50
2022-08-09T15:05:16.890Z,28.50
2022-08-09T15:07:45.584Z,28.50
2022-08-09T15:10:24.754Z,28.50
2022-08-09T15:12:53.274Z,28.40
2022-08-09T15:15:21.067Z,28.30
2022-08-09T15:17:52.576Z,28.20
2022-08-09T15:21:57.455Z,28.10
2022-08-09T15:24:03.689Z,28.10
2022-08-09T15:25:58.243Z,28.10
2022-08-09T15:28:28.161Z,28.00
2022-08-09T15:31:09.855Z,27.90
2022-08-09T15:34:33.113Z,27.90
2022-08-09T15:36:28.709Z,27.90
2022-08-09T15:38:57.937Z,27.80
2022-08-09T15:41:31.427Z,27.70
2022-08-09T15:44:02.073Z,27.80
2022-08-09T15:46:33.249Z,27.80
2022-08-09T15:49:22.732Z,27.80
2022-08-09T15:52:03.493Z,27.80
2022-08-09T15:54:52.604Z,27.90
2022-08-09T15:57:34.027Z,27.90
2022-08-09T16:00:04.508Z,27.90
2022-08-09T16:02:31.487Z,27.80
2022-08-09T16:04:58.360Z,27.80
2022-08-09T16:07:29.632Z,27.70
2022-08-09T16:10:17.057Z,27.70
2022-08-09T16:12:55.300Z,27.60
2022-08-09T16:16:04.677Z,27.60
2022-08-09T16:18:09.397Z,27.60
2022-08-09T16:20:38.027Z,27.60
2022-08-09T16:23:08.563Z,27.50
2022-08-09T16:25:40.271Z,27.50
2022-08-09T16:28:08.354Z,27.50
2022-08-09T16:30:44.463Z,27.50
2022-08-09T16:33:12.314Z,27.50
2022-08-09T16:35:55.935Z,27.50
2022-08-09T16:38:25.488Z,27.40
2022-08-09T16:40:52.481Z,27.50
2022-08-09T16:43:20.896Z,27.40
2022-08-09T16:45:48.305Z,27.30
2022-08-09T16:48:39.113Z,27.40
2022-08-09T16:51:13.912Z,27.30
2022-08-09T16:56:34.567Z,27.30
2022-08-09T16:59:06.873Z,27.20
2022-08-09T17:01:37.536Z,27.20
2022-08-09T17:04:06.756Z,27.20
2022-08-09T17:08:40.585Z,27.20
2022-08-09T17:09:45.499Z,27.20
2022-08-09T17:12:09.065Z,27.10
2022-08-09T17:14:36.085Z,27.10
2022-08-09T17:17:23.349Z,27.10
2022-08-09T17:20:33.244Z,27.00
2022-08-09T17:22:50.087Z,26.90
2022-08-09T17:25:19.048Z,26.90
2022-08-09T17:27:49.149Z,26.90
2022-08-09T17:30:22.282Z,26.80
2022-08-09T17:32:53.361Z,26.80
2022-08-09T17:35:20.310Z,26.70
2022-08-09T17:38:11.820Z,26.70
2022-08-09T17:40:36.307Z,26.70
2022-08-09T17:43:32.049Z,26.60
2022-08-09T17:46:02.836Z,26.60
2022-08-09T17:48:32.380Z,26.60
2022-08-09T17:51:06.595Z,26.60
2022-08-09T17:53:52.407Z,26.50
2022-08-09T17:56:27.150Z,26.50
2022-08-09T17:58:56.031Z,26.40
2022-08-09T18:01:23.750Z,26.40
2022-08-09T18:03:54.257Z,26.30
2022-08-09T18:06:32.370Z,26.30
2022-08-09T18:09:05.539Z,26.30
2022-08-09T18:11:46.830Z,26.30
2022-08-09T18:14:22.697Z,26.30
2022-08-09T18:16:50.779Z,26.20
2022-08-09T18:20:54.437Z,26.10
2022-08-09T18:22:13.338Z,26.10
2022-08-09T18:24:47.132Z,26.00
2022-08-09T18:27:18.797Z,25.90
2022-08-09T18:30:40.884Z,25.90
2022-08-09T18:32:54.001Z,25.70
2022-08-09T18:35:58.438Z,25.60
2022-08-09T18:38:09.074Z,25.50
2022-08-09T18:40:36.149Z,25.50
2022-08-09T18:43:04.532Z,25.40
2022-08-09T18:46:47.503Z,25.30
2022-08-09T18:48:18.821Z,25.20
2022-08-09T18:50:47.299Z,25.10
2022-08-09T18:53:16.384Z,25.00
2022-08-09T18:55:56.445Z,25.00
2022-08-09T18:58:32.002Z,24.90
2022-08-09T19:01:00.554Z,24.70
2022-08-09T19:03:28.593Z,24.70
2022-08-09T19:06:03.231Z,24.60
2022-08-09T19:08:32.159Z,24.50
2022-08-09T19:10:59.432Z,24.40
2022-08-09T19:13:49.787Z,24.30
2022-08-09T19:16:13.559Z,24.20
2022-08-09T19:18:48.596Z,24.20
2022-08-09T19:21:16.745Z,24.10
2022-08-09T19:24:39.832Z,24.10
2022-08-09T19:26:35.994Z,24.00
2022-08-09T19:29:15.098Z,24.00
2022-08-09T19:31:46.381Z,23.90
2022-08-09T19:34:22.178Z,23.80
2022-08-09T19:36:54.877Z,23.70
2022-08-09T19:39:42.900Z,23.70
2022-08-09T19:42:15.010Z,23.60
2022-08-09T19:44:50.758Z,23.60
2022-08-09T19:47:23.054Z,23.50
2022-08-09T19:50:10.076Z,23.40
2022-08-09T19:52:49.654Z,23.40
2022-08-09T19:55:19.384Z,23.30
2022-08-09T19:57:47.031Z,23.30
2022-08-09T20:00:16.041Z,23.20
2022-08-09T20:04:09.656Z,23.10
2022-08-09T20:05:46.125Z,23.10
2022-08-09T20:08:16.004Z,23.00
2022-08-09T20:10:52.285Z,23.00
2022-08-09T20:13:20.749Z,22.90
2022-08-09T20:16:36.869Z,22.90
2022-08-09T20:18:35.819Z,22.80
2022-08-09T20:21:03.858Z,22.70
2022-08-09T20:23:38.833Z,22.60
2022-08-09T20:26:07.806Z,22.60
2022-08-09T20:28:48.483Z,22.50
2022-08-09T20:31:17.441Z,22.50
2022-08-09T20:33:45.669Z,22.50
2022-08-09T20:36:13.177Z,22.40
2022-08-09T20:41:35.019Z,22.30
2022-08-09T20:44:06.865Z,22.20
2022-08-09T20:46:43.001Z,22.20
2022-08-09T20:49:12.967Z,22.20
2022-08-09T20:51:42.119Z,22.20
2022-08-09T20:54:17.177Z,22.10
2022-08-09T20:56:47.143Z,22.10
2022-08-09T20:59:17.502Z,22.10
2022-08-09T21:01:50.743Z,22.00
2022-08-09T21:05:57.931Z,22.00
2022-08-09T21:07:11.415Z,21.90
2022-08-09T21:09:55.613Z,21.90
2022-08-09T21:15:23.631Z,21.80
2022-08-09T21:18:22.257Z,21.70
2022-08-09T21:20:54.144Z,21.70
2022-08-09T21:23:22.438Z,21.60
2022-08-09T21:26:03.812Z,21.60
2022-08-09T21:28:35.849Z,21.50
2022-08-09T21:31:16.994Z,21.50
2022-08-09T21:33:49.407Z,21.40
2022-08-09T21:36:20.293Z,21.40
2022-08-09T21:38:51.079Z,21.40
2022-08-09T21:41:25.654Z,21.30
2022-08-09T21:44:11.199Z,21.30
2022-08-09T21:46:38.267Z,21.20
2022-08-09T21:49:05.244Z,21.20
2022-08-09T21:51:36.188Z,21.20
2022-08-09T21:54:12.021Z,21.10
2022-08-09T21:56:44.799Z,21.00
2022-08-09T21:59:23.213Z,21.00
2022-08-09T22:02:01.264Z,20.90
2022-08-09T22:04:55.790Z,20.90
2022-08-09T22:07:23.297Z,20.80
2022-08-09T22:10:02.949Z,20.70
2022-08-09T22:12:34.837Z,20.70
2022-08-09T22:15:02.113Z,20.70
2022-08-09T22:17:32.107Z,20.60
2022-08-09T22:20:00.886Z,20.60
2022-08-09T22:22:31.267Z,20.50
2022-08-09T22:26:07.454Z,20.50
2022-08-09T22:27:48.734Z,20.50
2022-08-09T22:30:16.076Z,20.40
2022-08-09T22:32:58.346Z,20.30
2022-08-09T22:36:01.573Z,20.20
2022-08-09T22:38:12.376Z,20.20
2022-08-09T22:40:49.250Z,20.20
2022-08-09T22:44:03.275Z,20.20
2022-08-09T22:48:15.519Z,20.20
2022-08-09T22:49:02.022Z,20.10
2022-08-09T22:51:39.314Z,20.10
2022-08-09T22:54:08.208Z,20.10
2022-08-09T22:56:41.620Z,20.00
2022-08-09T22:59:55.658Z,20.00
2022-08-09T23:01:56.838Z,19.90
2022-08-09T23:04:25.495Z,19.90
2022-08-09T23:07:14.161Z,19.80
2022-08-09T23:09:43.441Z,19.80
2022-08-09T23:12:10.675Z,19.80
2022-08-09T23:14:42.223Z,19.80
2022-08-09T23:17:11.184Z,19.70
2022-08-09T23:20:06.443Z,19.70
2022-08-09T23:22:25.412Z,19.60
2022-08-09T23:24:52.454Z,19.60
2022-08-09T23:27:19.372Z,19.50
2022-08-09T23:29:46.432Z,19.50
2022-08-09T23:32:13.427Z,19.50
2022-08-09T23:34:40.640Z,19.50
2022-08-09T23:37:07.769Z,19.50
2022-08-09T23:39:34.851Z,19.40
2022-08-09T23:42:01.852Z,19.40
2022-08-09T23:44:28.916Z,19.30
2022-08-09T23:46:57.643Z,19.30
2022-08-09T23:49:28.123Z,19.30
2022-08-09T23:51:55.473Z,19.20
2022-08-09T23:54:24.414Z,19.20
2022-08-09T23:56:56.241Z,19.10
2022-08-09T23:59:25.585Z,19.10
